createdAt,value
2018-09-14T00:00:53.198Z,14.33
2018-09-14T00:01:52.232Z,14.40
2018-09-14T00:02:51.253Z,14.33
2018-09-14T00:04:13.700Z,14.32
2018-09-14T00:04:51.307Z,14.32
2018-09-14T00:05:53.265Z,14.40
2018-09-14T00:07:50.448Z,14.43
2018-09-14T00:08:50.478Z,14.28
2018-09-14T00:09:51.407Z,14.25
2018-09-14T00:10:50.250Z,14.32
2018-09-14T00:11:50.469Z,14.33
2018-09-14T00:12:50.376Z,14.26
2018-09-14T00:13:50.346Z,14.23
2018-09-14T00:14:50.395Z,14.23
2018-09-14T00:17:28.525Z,14.32
2018-09-14T00:18:13.022Z,14.26
2018-09-14T00:20:25.542Z,14.28
2018-09-14T00:21:18.564Z,14.26
2018-09-14T00:22:11.487Z,14.28
2018-09-14T00:23:11.600Z,14.18
2018-09-14T00:24:12.574Z,14.18
2018-09-14T00:25:11.583Z,14.17
2018-09-14T00:26:13.498Z,14.17
2018-09-14T00:27:11.633Z,14.22
2018-09-14T00:28:11.542Z,14.20
2018-09-14T00:29:11.516Z,14.22
2018-09-14T00:30:11.586Z,14.20
2018-09-14T00:31:14.105Z,14.22
2018-09-14T00:32:11.447Z,14.20
2018-09-14T00:34:36.557Z,14.23
2018-09-14T00:35:32.375Z,14.22
2018-09-14T00:36:34.161Z,14.20
2018-09-14T00:37:32.509Z,14.23
2018-09-14T00:38:47.138Z,14.30
2018-09-14T00:39:32.371Z,14.18
2018-09-14T00:40:32.336Z,14.22
2018-09-14T00:41:32.422Z,14.18
2018-09-14T00:42:32.511Z,14.18
2018-09-14T00:43:37.104Z,14.25
2018-09-14T00:44:33.986Z,14.23
2018-09-14T00:45:34.121Z,14.23
2018-09-14T00:46:32.355Z,14.30
2018-09-14T00:47:32.324Z,14.26
2018-09-14T00:48:32.476Z,14.35
2018-09-14T00:49:35.065Z,14.29
2018-09-14T00:50:33.139Z,14.25
2018-09-14T00:51:32.101Z,14.22
2018-09-14T00:52:35.173Z,14.29
2018-09-14T00:54:32.411Z,14.23
2018-09-14T00:55:33.931Z,14.22
2018-09-14T00:56:32.172Z,14.26
2018-09-14T00:57:32.221Z,14.26
2018-09-14T00:58:32.181Z,14.23
2018-09-14T00:59:34.106Z,14.30
2018-09-14T01:00:33.170Z,14.28
2018-09-14T01:01:32.251Z,14.30
2018-09-14T01:02:37.150Z,14.28
2018-09-14T01:03:47.081Z,14.28
2018-09-14T01:04:32.320Z,14.23
2018-09-14T01:05:39.153Z,14.23
2018-09-14T01:06:33.202Z,14.35
2018-09-14T01:07:32.153Z,14.28
2018-09-14T01:08:32.155Z,14.30
2018-09-14T01:09:47.096Z,14.25
2018-09-14T01:10:34.109Z,14.22
2018-09-14T01:11:32.171Z,14.29
2018-09-14T01:12:32.085Z,14.29
2018-09-14T01:13:32.610Z,14.18
2018-09-14T01:14:34.602Z,14.25
2018-09-14T01:15:32.049Z,14.20
2018-09-14T01:16:33.597Z,14.17
2018-09-14T01:17:32.101Z,14.25
2018-09-14T01:18:33.202Z,14.22
2018-09-14T01:19:36.538Z,14.26
2018-09-14T01:20:31.986Z,14.23
2018-09-14T01:21:32.054Z,14.12
2018-09-14T01:22:33.481Z,14.12
2018-09-14T01:23:31.974Z,14.12
2018-09-14T01:24:38.583Z,14.18
2018-09-14T01:25:31.877Z,14.11
2018-09-14T01:26:31.843Z,14.14
2018-09-14T01:27:31.954Z,14.18
2018-09-14T01:28:34.717Z,14.15
2018-09-14T01:29:34.646Z,14.17
2018-09-14T01:30:31.921Z,14.00
2018-09-14T01:31:32.664Z,14.12
2018-09-14T01:32:31.877Z,14.07
2018-09-14T01:33:31.789Z,14.07
2018-09-14T01:34:34.210Z,14.08
2018-09-14T01:35:34.527Z,14.11
2018-09-14T01:37:32.589Z,14.08
2018-09-14T01:39:31.887Z,14.03
2018-09-14T01:40:31.683Z,14.10
2018-09-14T01:41:31.730Z,14.14
2018-09-14T01:42:36.427Z,14.14
2018-09-14T01:43:33.493Z,14.12
2018-09-14T01:44:32.627Z,14.12
2018-09-14T01:45:31.818Z,14.15
2018-09-14T01:47:32.601Z,14.15
2018-09-14T01:48:31.483Z,14.14
2018-09-14T01:49:34.662Z,14.15
2018-09-14T01:50:31.532Z,14.14
2018-09-14T01:51:31.605Z,14.12
2018-09-14T01:52:33.196Z,14.11
2018-09-14T01:54:31.748Z,14.14
2018-09-14T01:55:31.555Z,14.03
2018-09-14T01:56:42.184Z,13.99
2018-09-14T01:57:32.144Z,14.12
2018-09-14T01:58:33.018Z,14.05
2018-09-14T01:59:31.340Z,14.00
2018-09-14T02:00:31.485Z,13.97
2018-09-14T02:01:31.546Z,14.03
2018-09-14T02:02:31.375Z,14.10
2018-09-14T02:03:31.605Z,14.12
2018-09-14T02:04:31.368Z,14.00
2018-09-14T02:05:34.240Z,14.07
2018-09-14T02:06:33.112Z,14.04
2018-09-14T02:07:38.168Z,14.05
2018-09-14T02:08:31.521Z,13.99
2018-09-14T02:09:38.182Z,13.97
2018-09-14T02:10:33.033Z,13.95
2018-09-14T02:11:32.081Z,13.93
2018-09-14T02:12:31.422Z,13.95
2018-09-14T02:13:31.425Z,13.99
2018-09-14T02:14:31.797Z,13.95
2018-09-14T02:15:31.241Z,13.97
2018-09-14T02:16:33.132Z,13.96
2018-09-14T02:17:31.940Z,13.93
2018-09-14T02:18:33.090Z,13.86
2018-09-14T02:19:31.243Z,13.89
2018-09-14T02:20:52.346Z,13.92
2018-09-14T02:21:34.056Z,13.90
2018-09-14T02:22:31.369Z,13.87
2018-09-14T02:23:31.252Z,13.90
2018-09-14T02:24:31.264Z,13.93
2018-09-14T02:25:31.209Z,13.92
2018-09-14T02:26:31.174Z,13.87
2018-09-14T02:27:42.197Z,13.79
2018-09-14T02:28:32.028Z,13.92
2018-09-14T02:29:32.164Z,13.92
2018-09-14T02:30:31.126Z,13.92
2018-09-14T02:31:34.117Z,13.93
2018-09-14T02:32:31.017Z,13.78
2018-09-14T02:33:30.981Z,13.89
2018-09-14T02:34:31.053Z,13.87
2018-09-14T02:35:37.680Z,13.81
2018-09-14T02:37:31.714Z,13.81
2018-09-14T02:38:32.515Z,13.81
2018-09-14T02:39:30.975Z,13.83
2018-09-14T02:41:55.794Z,13.83
2018-09-14T02:42:54.748Z,13.81
2018-09-14T02:43:54.760Z,13.78
2018-09-14T02:46:29.885Z,13.71
2018-09-14T02:49:17.500Z,13.77
2018-09-14T02:50:17.530Z,13.79
2018-09-14T02:52:16.417Z,13.65
2018-09-14T02:53:13.973Z,13.70
2018-09-14T02:55:10.070Z,13.65
2018-09-14T02:57:20.284Z,13.67
2018-09-14T02:58:17.775Z,13.68
2018-09-14T03:00:23.143Z,13.65
2018-09-14T03:01:23.787Z,13.63
2018-09-14T03:02:27.769Z,13.67
2018-09-14T03:03:23.076Z,13.62
2018-09-14T03:04:24.608Z,13.62
2018-09-14T03:05:22.991Z,13.62
2018-09-14T03:06:23.099Z,13.57
2018-09-14T03:07:27.600Z,13.63
2018-09-14T03:08:23.412Z,13.59
2018-09-14T03:09:24.641Z,13.62
2018-09-14T03:10:23.055Z,13.63
2018-09-14T03:11:24.340Z,13.65
2018-09-14T03:13:23.722Z,13.60
2018-09-14T03:14:25.738Z,13.60
2018-09-14T03:15:23.028Z,13.63
2018-09-14T03:16:23.048Z,13.62
2018-09-14T03:17:23.433Z,13.67
2018-09-14T03:20:25.791Z,13.56
2018-09-14T03:21:24.773Z,13.65
2018-09-14T03:22:23.690Z,13.63
2018-09-14T03:23:25.764Z,13.60
2018-09-14T03:24:22.879Z,13.57
2018-09-14T03:25:22.842Z,13.67
2018-09-14T03:26:27.761Z,13.57
2018-09-14T03:27:22.956Z,13.62
2018-09-14T03:28:24.685Z,13.65
2018-09-14T03:29:22.830Z,13.59
2018-09-14T03:30:22.811Z,13.65
2018-09-14T03:31:22.722Z,13.63
2018-09-14T03:32:25.447Z,13.59
2018-09-14T03:34:22.695Z,13.74
2018-09-14T03:35:29.209Z,13.65
2018-09-14T03:36:29.232Z,13.65
2018-09-14T03:37:25.185Z,13.67
2018-09-14T03:38:27.207Z,13.78
2018-09-14T03:40:23.311Z,13.78
2018-09-14T03:43:45.271Z,13.79
2018-09-14T03:44:44.163Z,13.79
2018-09-14T03:48:43.228Z,13.77
2018-09-14T03:49:41.325Z,13.79
2018-09-14T03:52:40.984Z,13.68
2018-09-14T03:53:40.589Z,13.77
2018-09-14T03:55:59.355Z,13.65
2018-09-14T03:59:05.253Z,13.70
2018-09-14T03:59:56.664Z,13.79
2018-09-14T04:02:15.360Z,13.67
2018-09-14T04:05:00.960Z,13.78
2018-09-14T04:05:29.462Z,13.79
2018-09-14T04:07:23.188Z,13.79
2018-09-14T04:08:21.713Z,13.81
2018-09-14T04:09:20.866Z,13.78
2018-09-14T04:10:23.387Z,13.79
2018-09-14T04:11:23.415Z,13.87
2018-09-14T04:12:20.964Z,13.90
2018-09-14T04:13:20.802Z,13.89
2018-09-14T04:16:05.837Z,13.87
2018-09-14T04:16:41.762Z,13.93
2018-09-14T04:18:38.345Z,13.92
2018-09-14T04:19:36.519Z,13.95
2018-09-14T04:20:38.246Z,13.95
2018-09-14T04:21:38.724Z,13.93
2018-09-14T04:22:36.704Z,13.85
2018-09-14T04:23:37.050Z,13.89
2018-09-14T04:24:36.525Z,13.95
2018-09-14T04:25:36.661Z,13.90
2018-09-14T04:26:36.523Z,13.90
2018-09-14T04:27:36.565Z,13.92
2018-09-14T04:28:39.260Z,13.96
2018-09-14T04:29:36.578Z,13.97
2018-09-14T04:30:36.615Z,14.00
2018-09-14T04:31:36.593Z,14.03
2018-09-14T04:32:36.505Z,14.12
2018-09-14T04:33:36.436Z,14.11
2018-09-14T04:34:38.279Z,14.11
2018-09-14T04:36:36.538Z,14.12
2018-09-14T04:37:36.410Z,14.15
2018-09-14T04:38:36.523Z,14.15
2018-09-14T04:39:38.631Z,14.14
2018-09-14T04:41:36.451Z,14.14
2018-09-14T04:42:36.443Z,14.11
2018-09-14T04:43:36.412Z,14.23
2018-09-14T04:44:39.358Z,14.26
2018-09-14T04:46:39.134Z,14.18
2018-09-14T04:47:38.789Z,14.15
2018-09-14T04:48:36.380Z,14.22
2018-09-14T04:49:38.183Z,14.20
2018-09-14T04:50:38.292Z,14.18
2018-09-14T04:51:36.689Z,14.20
2018-09-14T04:53:37.767Z,14.25
2018-09-14T04:54:36.225Z,14.30
2018-09-14T04:55:39.372Z,14.28
2018-09-14T04:56:38.344Z,14.18
2018-09-14T04:57:37.830Z,14.26
2018-09-14T04:58:36.138Z,14.33
2018-09-14T04:59:36.221Z,14.18
2018-09-14T05:00:38.801Z,14.25
2018-09-14T05:02:36.176Z,14.36
2018-09-14T05:03:36.197Z,14.30
2018-09-14T05:04:36.152Z,14.41
2018-09-14T05:05:37.806Z,14.40
2018-09-14T05:07:35.935Z,14.47
2018-09-14T05:08:36.052Z,14.50
2018-09-14T05:09:35.885Z,14.59
2018-09-14T05:11:36.016Z,14.69
2018-09-14T05:12:36.490Z,14.78
2018-09-14T05:13:36.072Z,14.70
2018-09-14T05:15:37.751Z,14.81
2018-09-14T05:16:39.340Z,14.89
2018-09-14T05:17:37.869Z,14.92
2018-09-14T05:19:39.060Z,14.86
2018-09-14T05:20:35.966Z,14.94
2018-09-14T05:21:35.944Z,14.97
2018-09-14T05:22:35.729Z,15.03
2018-09-14T05:23:35.765Z,15.09
2018-09-14T05:24:36.427Z,15.14
2018-09-14T05:25:35.766Z,15.21
2018-09-14T05:26:36.693Z,15.18
2018-09-14T05:27:37.808Z,15.33
2018-09-14T05:28:35.747Z,15.29
2018-09-14T05:29:37.842Z,15.25
2018-09-14T05:30:35.846Z,15.36
2018-09-14T05:31:35.760Z,15.46
2018-09-14T05:32:37.768Z,15.47
2018-09-14T05:34:36.277Z,15.47
2018-09-14T05:35:36.250Z,15.54
2018-09-14T05:36:37.629Z,15.49
2018-09-14T05:37:35.676Z,15.51
2018-09-14T05:38:36.349Z,15.59
2018-09-14T05:39:37.770Z,15.62
2018-09-14T05:40:37.567Z,15.61
2018-09-14T05:42:37.214Z,15.68
2018-09-14T05:43:35.646Z,15.73
2018-09-14T05:44:38.752Z,15.79
2018-09-14T05:47:36.121Z,15.90
2018-09-14T05:48:35.650Z,15.94
2018-09-14T05:50:36.671Z,16.00
2018-09-14T05:51:37.775Z,15.97
2018-09-14T05:52:37.710Z,15.95
2018-09-14T05:53:35.528Z,16.01
2018-09-14T05:54:37.359Z,16.00
2018-09-14T05:55:37.847Z,16.05
2018-09-14T05:56:37.623Z,16.08
2018-09-14T05:57:35.715Z,16.13
2018-09-14T05:58:36.600Z,16.13
2018-09-14T05:59:37.637Z,16.21
2018-09-14T06:01:35.501Z,16.32
2018-09-14T06:02:37.319Z,16.24
2018-09-14T06:03:35.930Z,16.41
2018-09-14T06:04:36.580Z,16.41
2018-09-14T06:06:35.497Z,16.54
2018-09-14T06:07:37.368Z,16.46
2018-09-14T06:08:35.429Z,16.57
2018-09-14T06:09:35.407Z,16.53
2018-09-14T06:10:35.329Z,16.66
2018-09-14T06:11:38.228Z,16.71
2018-09-14T06:12:38.299Z,16.64
2018-09-14T06:13:36.424Z,16.64
2018-09-14T06:14:39.404Z,16.58
2018-09-14T06:15:36.296Z,16.72
2018-09-14T06:16:35.215Z,16.75
2018-09-14T06:17:35.391Z,16.86
2018-09-14T06:18:37.431Z,16.78
2018-09-14T06:19:36.932Z,16.76
2018-09-14T06:23:38.202Z,16.81
2018-09-14T06:24:35.190Z,16.78
2018-09-14T06:25:38.415Z,16.76
2018-09-14T06:26:38.158Z,16.79
2018-09-14T06:27:41.706Z,16.89
2018-09-14T06:28:42.544Z,16.89
2018-09-14T06:29:38.849Z,16.99
2018-09-14T06:30:41.004Z,16.96
2018-09-14T06:31:38.589Z,16.93
2018-09-14T06:33:36.047Z,17.09
2018-09-14T06:35:35.159Z,17.36
2018-09-14T06:37:36.259Z,17.51
2018-09-14T06:38:35.566Z,17.71
2018-09-14T06:39:36.854Z,17.76
2018-09-14T06:40:35.667Z,17.85
2018-09-14T06:41:35.051Z,17.86
2018-09-14T06:43:34.991Z,18.01
2018-09-14T06:44:35.063Z,18.04
2018-09-14T06:46:35.525Z,18.23
2018-09-14T06:47:35.544Z,18.34
2018-09-14T06:48:35.911Z,18.31
2018-09-14T06:49:36.831Z,18.44
2018-09-14T06:50:35.586Z,18.52
2018-09-14T06:51:37.257Z,18.56
2018-09-14T06:52:34.969Z,18.68
2018-09-14T06:53:37.256Z,18.84
2018-09-14T06:54:37.313Z,18.92
2018-09-14T06:55:37.373Z,18.93
2018-09-14T06:56:37.869Z,19.07
2018-09-14T06:57:34.987Z,19.27
2018-09-14T06:58:36.887Z,19.34
2018-09-14T06:59:34.867Z,19.33
2018-09-14T07:00:36.057Z,19.40
2018-09-14T07:01:37.401Z,19.54
2018-09-14T07:02:38.467Z,19.64
2018-09-14T07:03:37.415Z,19.77
2018-09-14T07:04:37.715Z,19.86
2018-09-14T07:05:38.079Z,19.95
2018-09-14T07:06:35.336Z,20.10
2018-09-14T07:07:34.838Z,20.14
2018-09-14T07:08:37.731Z,20.28
2018-09-14T07:09:34.715Z,20.32
2018-09-14T07:12:34.809Z,20.84
2018-09-14T07:13:37.331Z,21.06
2018-09-14T07:14:36.844Z,21.11
2018-09-14T07:15:35.097Z,21.30
2018-09-14T07:16:36.295Z,21.37
2018-09-14T07:17:34.575Z,21.52
2018-09-14T07:18:36.853Z,21.72
2018-09-14T07:19:34.640Z,21.82
2018-09-14T07:20:34.751Z,21.85
2018-09-14T07:21:36.379Z,21.95
2018-09-14T07:22:35.245Z,21.99
2018-09-14T07:23:34.746Z,22.11
2018-09-14T07:24:35.192Z,22.29
2018-09-14T07:27:34.601Z,22.83
2018-09-14T07:28:36.900Z,22.87
2018-09-14T07:29:34.485Z,22.99
2018-09-14T07:30:35.079Z,23.06
2018-09-14T07:31:34.887Z,23.15
2018-09-14T07:32:34.527Z,23.31
2018-09-14T07:34:35.115Z,23.48
2018-09-14T07:35:34.560Z,23.58
2018-09-14T07:36:37.912Z,23.65
2018-09-14T07:37:34.794Z,23.80
2018-09-14T07:38:36.185Z,23.92
2018-09-14T07:39:34.609Z,23.78
2018-09-14T07:40:34.482Z,23.86
2018-09-14T07:42:34.443Z,23.69
2018-09-14T07:45:34.897Z,23.05
2018-09-14T07:46:34.650Z,23.02
2018-09-14T07:47:34.517Z,22.98
2018-09-14T07:48:34.519Z,22.78
2018-09-14T07:49:34.388Z,22.62
2018-09-14T07:50:36.443Z,22.54
2018-09-14T07:52:34.464Z,22.57
2018-09-14T07:53:34.443Z,22.84
2018-09-14T07:54:34.362Z,23.00
2018-09-14T07:55:35.162Z,23.12
2018-09-14T07:56:36.769Z,23.23
2018-09-14T07:57:35.643Z,23.28
2018-09-14T07:58:34.506Z,23.36
2018-09-14T07:59:34.428Z,23.51
2018-09-14T08:00:36.667Z,23.51
2018-09-14T08:02:37.437Z,23.47
2018-09-14T08:03:36.892Z,23.44
2018-09-14T08:04:34.285Z,23.39
2018-09-14T08:05:34.897Z,23.36
2018-09-14T08:06:37.337Z,23.32
2018-09-14T08:07:36.320Z,23.48
2018-09-14T08:08:34.927Z,23.58
2018-09-14T08:12:17.270Z,23.61
2018-09-14T08:13:19.084Z,23.31
2018-09-14T08:15:23.080Z,23.09
2018-09-14T08:17:20.797Z,23.13
2018-09-14T08:18:20.747Z,23.24
2018-09-14T08:21:03.463Z,23.18
2018-09-14T08:21:58.944Z,23.25
2018-09-14T08:22:57.554Z,23.18
2018-09-14T08:23:57.208Z,23.24
2018-09-14T08:24:58.860Z,23.23
2018-09-14T08:25:57.147Z,23.37
2018-09-14T08:26:58.530Z,23.47
2018-09-14T08:27:58.992Z,23.51
2018-09-14T08:28:57.173Z,23.69
2018-09-14T08:29:57.094Z,23.91
2018-09-14T08:30:58.960Z,24.08
2018-09-14T08:31:57.018Z,24.10
2018-09-14T08:32:57.645Z,24.01
2018-09-14T08:35:00.282Z,24.53
2018-09-14T08:35:57.933Z,24.86
2018-09-14T08:37:57.857Z,25.17
2018-09-14T08:38:58.933Z,25.23
2018-09-14T08:40:18.531Z,25.55
2018-09-14T08:41:58.904Z,26.41
2018-09-14T08:42:57.592Z,26.53
2018-09-14T09:05:26.185Z,26.45
2018-09-14T09:06:19.581Z,26.23
2018-09-14T09:07:19.610Z,26.21
2018-09-14T09:08:19.459Z,26.15
2018-09-14T09:09:19.543Z,26.02
2018-09-14T09:10:20.025Z,25.81
2018-09-14T09:11:19.924Z,25.54
2018-09-14T09:13:21.611Z,24.70
2018-09-14T09:15:19.385Z,24.16
2018-09-14T09:16:19.414Z,23.98
2018-09-14T09:17:21.122Z,23.80
2018-09-14T09:19:19.471Z,23.47
2018-09-14T09:20:19.325Z,23.37
2018-09-14T09:21:19.362Z,23.47
2018-09-14T09:23:19.385Z,23.18
2018-09-14T09:25:19.326Z,23.12
2018-09-14T09:27:19.309Z,23.09
2018-09-14T09:28:20.311Z,23.06
2018-09-14T09:29:19.289Z,22.73
2018-09-14T09:30:19.766Z,22.62
2018-09-14T09:31:19.045Z,22.63
2018-09-14T09:32:19.368Z,22.75
2018-09-14T09:33:19.349Z,22.80
2018-09-14T09:34:22.055Z,22.80
2018-09-14T09:35:19.774Z,22.63
2018-09-14T09:36:19.113Z,22.44
2018-09-14T09:37:21.531Z,22.44
2018-09-14T09:38:20.936Z,22.33
2018-09-14T09:39:19.473Z,22.22
2018-09-14T09:40:19.214Z,22.26
2018-09-14T09:41:19.330Z,22.17
2018-09-14T09:42:20.036Z,22.10
2018-09-14T09:43:22.509Z,22.02
2018-09-14T09:45:21.159Z,21.83
2018-09-14T09:46:21.037Z,21.76
2018-09-14T09:47:18.963Z,21.79
2018-09-14T09:48:19.196Z,21.88
2018-09-14T09:49:21.603Z,22.06
2018-09-14T09:50:18.990Z,22.15
2018-09-14T09:51:20.256Z,22.33
2018-09-14T09:52:19.237Z,22.63
2018-09-14T09:53:19.203Z,22.88
2018-09-14T09:54:19.144Z,23.44
2018-09-14T09:56:19.209Z,24.54
2018-09-14T09:57:19.124Z,25.63
2018-09-14T09:59:19.195Z,27.87
2018-09-14T10:00:20.621Z,28.27
2018-09-14T10:02:20.700Z,28.76
2018-09-14T10:03:22.161Z,29.19
2018-09-14T10:04:21.147Z,30.03
2018-09-14T10:07:20.174Z,29.86
2018-09-14T10:09:20.221Z,31.78
2018-09-14T10:10:19.153Z,32.34
2018-09-14T10:12:22.299Z,33.83
2018-09-14T10:14:20.160Z,34.66
2018-09-14T10:15:22.132Z,34.51
2018-09-14T10:16:19.141Z,34.71
2018-09-14T10:17:19.147Z,33.86
2018-09-14T10:18:19.149Z,36.25
2018-09-14T10:19:20.168Z,38.24
2018-09-14T10:20:21.249Z,39.90
2018-09-14T10:23:20.135Z,40.00
2018-09-14T10:25:20.660Z,39.00
2018-09-14T10:26:21.673Z,37.23
2018-09-14T10:27:22.390Z,37.18
2018-09-14T10:28:19.136Z,36.88
2018-09-14T10:30:19.147Z,36.30
2018-09-14T10:31:19.099Z,36.67
2018-09-14T10:32:19.206Z,36.39
2018-09-14T10:33:20.899Z,35.66
2018-09-14T10:34:20.173Z,34.45
2018-09-14T10:36:22.363Z,33.32
2018-09-14T10:41:20.733Z,29.04
2018-09-14T10:42:19.105Z,28.45
2018-09-14T10:43:19.620Z,28.04
2018-09-14T10:45:19.201Z,27.07
2018-09-14T10:46:21.665Z,26.48
2018-09-14T10:48:18.999Z,25.75
2018-09-14T10:49:21.631Z,25.44
2018-09-14T10:50:19.065Z,24.85
2018-09-14T10:51:20.595Z,24.55
2018-09-14T10:52:20.763Z,24.42
2018-09-14T10:53:19.074Z,24.17
2018-09-14T10:54:19.581Z,24.13
2018-09-14T10:55:20.149Z,23.96
2018-09-14T10:56:21.640Z,23.91
2018-09-14T10:57:19.059Z,23.73
2018-09-14T10:58:18.976Z,23.77
2018-09-14T10:59:19.001Z,23.58
2018-09-14T11:00:19.012Z,23.39
2018-09-14T11:01:19.922Z,23.23
2018-09-14T11:02:19.276Z,23.00
2018-09-14T11:03:18.789Z,22.94
2018-09-14T11:04:21.270Z,22.81
2018-09-14T11:06:21.709Z,22.48
2018-09-14T11:07:21.220Z,22.23
2018-09-14T11:08:18.764Z,22.13
2018-09-14T11:09:20.584Z,21.95
2018-09-14T11:10:18.927Z,21.80
2018-09-14T11:12:18.951Z,22.14
2018-09-14T11:13:19.793Z,22.08
2018-09-14T11:14:18.733Z,22.06
2018-09-14T11:15:19.285Z,21.92
2018-09-14T11:16:18.901Z,21.98
2018-09-14T11:17:19.585Z,22.00
2018-09-14T11:18:18.891Z,22.14
2018-09-14T11:19:18.858Z,22.23
2018-09-14T11:20:18.838Z,22.23
2018-09-14T11:21:18.824Z,22.11
2018-09-14T11:22:21.250Z,22.11
2018-09-14T11:23:20.727Z,22.02
2018-09-14T11:24:21.654Z,21.83
2018-09-14T11:25:18.811Z,21.69
2018-09-14T11:26:20.731Z,21.62
2018-09-14T11:27:20.519Z,21.67
2018-09-14T11:28:19.653Z,21.72
2018-09-14T11:29:18.680Z,21.79
2018-09-14T11:30:20.624Z,22.02
2018-09-14T11:33:17.654Z,22.18
2018-09-14T11:35:21.922Z,22.36
2018-09-14T11:36:07.517Z,22.78
2018-09-14T11:37:07.422Z,23.17
2018-09-14T11:39:07.523Z,26.05
2018-09-14T11:40:09.094Z,27.75
2018-09-14T11:41:08.027Z,29.94
2018-09-14T11:42:09.205Z,31.47
2018-09-14T11:44:09.198Z,31.24
2018-09-14T11:45:07.528Z,31.46
2018-09-14T11:47:28.430Z,32.95
2018-09-14T12:01:17.945Z,42.06
2018-09-14T12:33:22.298Z,35.49
2018-09-14T12:34:20.802Z,36.57
2018-09-14T12:35:21.708Z,37.14
2018-09-14T12:36:24.162Z,37.45
2018-09-14T12:37:23.735Z,38.23
2018-09-14T12:38:20.801Z,38.15
2018-09-14T12:39:20.821Z,37.23
2018-09-14T12:41:20.806Z,33.99
2018-09-14T12:42:20.785Z,32.95
2018-09-14T12:43:20.808Z,33.80
2018-09-14T12:44:23.713Z,33.08
2018-09-14T12:45:20.791Z,32.30
2018-09-14T12:46:20.802Z,31.14
2018-09-14T12:47:20.809Z,30.37
2018-09-14T12:48:22.768Z,29.78
2018-09-14T12:49:23.294Z,29.27
2018-09-14T12:50:20.779Z,28.76
2018-09-14T12:51:20.774Z,28.47
2018-09-14T12:53:22.267Z,29.36
2018-09-14T12:54:20.758Z,30.30
2018-09-14T12:55:21.721Z,29.90
2018-09-14T12:56:20.840Z,29.02
2018-09-14T12:57:22.855Z,28.25
2018-09-14T13:00:20.679Z,32.89
2018-09-14T13:01:21.675Z,33.96
2018-09-14T13:02:21.283Z,34.86
2018-09-14T13:03:21.007Z,36.12
2018-09-14T13:04:20.799Z,37.06
2018-09-14T13:05:22.828Z,37.97
2018-09-14T13:06:20.700Z,38.60
2018-09-14T13:07:22.281Z,39.00
2018-09-14T13:10:20.723Z,40.00
2018-09-14T13:11:20.787Z,40.51
2018-09-14T13:13:22.365Z,41.56
2018-09-14T13:14:22.839Z,41.70
2018-09-14T13:15:20.751Z,42.02
2018-09-14T13:17:20.759Z,39.60
2018-09-14T13:18:21.317Z,39.60
2018-09-14T13:19:20.777Z,39.94
2018-09-14T13:28:10.727Z,40.43
2018-09-14T13:29:07.637Z,40.38
2018-09-14T13:34:49.129Z,40.46
2018-09-14T13:36:54.788Z,39.67
2018-09-14T13:38:50.267Z,39.97
2018-09-14T13:39:46.483Z,39.92
2018-09-14T13:40:48.771Z,39.77
2018-09-14T13:41:47.482Z,38.39
2018-09-14T13:42:46.471Z,36.31
2018-09-14T13:44:46.483Z,34.30
2018-09-14T13:45:50.740Z,35.80
2018-09-14T13:46:47.012Z,36.93
2018-09-14T13:47:48.245Z,36.95
2018-09-14T13:48:47.008Z,37.32
2018-09-14T13:49:46.461Z,37.82
2018-09-14T13:50:46.984Z,37.14
2018-09-14T13:52:48.341Z,34.14
2018-09-14T13:53:46.433Z,35.05
2018-09-14T13:55:49.677Z,34.11
2018-09-14T13:56:46.451Z,34.17
2018-09-14T13:57:46.466Z,33.01
2018-09-14T13:58:46.467Z,32.73
2018-09-14T14:00:48.269Z,34.83
2018-09-14T14:01:46.518Z,35.88
2018-09-14T14:02:48.824Z,34.93
2018-09-14T14:04:46.478Z,35.22
2018-09-14T14:06:50.217Z,33.37
2018-09-14T14:08:48.278Z,33.49
2018-09-14T14:09:47.021Z,33.74
2018-09-14T14:11:46.459Z,35.45
2018-09-14T14:12:49.212Z,36.05
2018-09-14T14:13:47.516Z,36.24
2018-09-14T14:14:48.261Z,36.76
2018-09-14T14:15:47.200Z,36.74
2018-09-14T14:17:46.508Z,36.88
2018-09-14T14:19:48.195Z,37.18
2018-09-14T14:26:10.120Z,35.93
2018-09-14T14:27:38.526Z,34.06
2018-09-14T14:30:50.403Z,35.48
2018-09-14T14:38:24.314Z,31.55
2018-09-14T14:39:23.542Z,30.68
2018-09-14T14:43:47.696Z,27.49
2018-09-14T14:45:59.143Z,25.40
2018-09-14T14:46:57.175Z,24.99
2018-09-14T14:49:24.317Z,24.28
2018-09-14T14:50:23.923Z,24.05
2018-09-14T14:51:22.983Z,23.87
2018-09-14T14:52:22.128Z,23.71
2018-09-14T14:53:22.238Z,23.61
2018-09-14T14:54:22.929Z,23.36
2018-09-14T14:55:22.181Z,23.34
2018-09-14T14:56:24.056Z,23.06
2018-09-14T14:57:22.176Z,22.68
2018-09-14T14:58:22.062Z,22.39
2018-09-14T14:59:23.964Z,22.29
2018-09-14T15:00:22.923Z,22.06
2018-09-14T15:01:57.900Z,21.77
2018-09-14T15:02:43.802Z,21.60
2018-09-14T15:03:28.887Z,21.40
2018-09-14T16:03:37.648Z,18.35
2018-09-14T16:04:30.115Z,18.38
2018-09-14T16:14:36.485Z,18.62
2018-09-14T16:15:36.457Z,18.53
2018-09-14T16:18:01.410Z,18.43
2018-09-14T16:19:01.357Z,18.38
2018-09-14T16:28:41.782Z,18.10
2018-09-14T16:29:39.381Z,18.00
2018-09-14T16:32:32.898Z,17.98
2018-09-14T16:35:24.044Z,17.89
2018-09-14T16:36:22.083Z,17.83
2018-09-14T16:42:05.680Z,17.76
2018-09-14T16:43:05.847Z,17.74
2018-09-14T16:45:00.383Z,17.71
2018-09-14T16:46:01.943Z,17.67
2018-09-14T16:51:12.459Z,17.57
2018-09-14T16:51:25.440Z,17.56
2018-09-14T16:56:28.615Z,17.46
2018-09-14T16:57:20.770Z,17.46
2018-09-14T16:59:14.827Z,17.39
2018-09-14T17:00:17.450Z,17.42
2018-09-14T17:02:22.289Z,17.31
2018-09-14T17:03:20.477Z,17.33
2018-09-14T17:04:21.003Z,17.29
2018-09-14T17:05:20.299Z,17.31
2018-09-14T17:06:21.039Z,17.24
2018-09-14T17:07:20.430Z,17.31
2018-09-14T17:08:20.241Z,17.29
2018-09-14T17:09:21.196Z,17.33
2018-09-14T17:10:20.323Z,17.30
2018-09-14T17:11:22.275Z,17.26
2018-09-14T17:12:23.767Z,17.24
2018-09-14T17:13:20.392Z,17.16
2018-09-14T17:14:20.402Z,17.16
2018-09-14T17:15:22.277Z,17.16
2018-09-14T17:16:20.189Z,17.11
2018-09-14T17:17:22.044Z,17.15
2018-09-14T17:18:21.081Z,17.06
2018-09-14T17:25:55.072Z,16.87
2018-09-14T17:26:09.931Z,16.79
2018-09-14T17:29:18.699Z,16.76
2018-09-14T17:30:14.070Z,16.76
2018-09-14T17:31:28.797Z,16.68
2018-09-14T17:42:01.082Z,16.50
2018-09-14T17:43:36.763Z,16.39
2018-09-14T17:48:00.796Z,16.46
2018-09-14T17:48:57.215Z,16.41
2018-09-14T17:51:27.474Z,16.41
2018-09-14T17:52:29.306Z,16.41
2018-09-14T17:54:28.833Z,16.39
2018-09-14T17:55:21.160Z,16.38
2018-09-14T17:57:14.198Z,16.38
2018-09-14T17:58:14.259Z,16.42
2018-09-14T18:01:38.702Z,16.43
2018-09-14T18:04:54.056Z,16.26
2018-09-14T18:05:54.790Z,16.35
2018-09-14T18:06:54.103Z,16.31
2018-09-14T18:08:53.978Z,16.36
2018-09-14T18:09:54.130Z,16.24
2018-09-14T18:12:15.022Z,16.29
2018-09-14T18:12:54.593Z,16.24
2018-09-14T18:14:53.924Z,16.32
2018-09-14T18:15:54.762Z,16.21
2018-09-14T18:16:58.586Z,16.20
2018-09-14T18:18:08.620Z,16.28
2018-09-14T18:20:48.244Z,16.12
2018-09-14T18:21:34.117Z,16.12
2018-09-14T18:24:15.992Z,16.13
2018-09-14T18:26:04.416Z,16.13
2018-09-14T18:27:59.610Z,16.13
2018-09-14T18:28:59.527Z,16.13
2018-09-14T18:29:57.595Z,16.05
2018-09-14T18:31:00.594Z,16.20
2018-09-14T18:31:57.729Z,16.16
2018-09-14T18:32:57.532Z,16.17
2018-09-14T18:33:57.570Z,16.13
2018-09-14T18:35:12.467Z,16.15
2018-09-14T18:35:58.661Z,16.15
2018-09-14T18:36:59.518Z,16.16
2018-09-14T18:38:00.024Z,16.21
2018-09-14T18:38:57.415Z,16.26
2018-09-14T18:40:02.076Z,16.33
2018-09-14T18:40:57.475Z,16.28
2018-09-14T18:41:57.445Z,16.20
2018-09-14T18:42:58.997Z,16.32
2018-09-14T18:43:57.482Z,16.26
2018-09-14T18:44:57.400Z,16.21
2018-09-14T18:45:58.000Z,16.26
2018-09-14T18:46:58.546Z,16.17
2018-09-14T18:47:57.443Z,16.20
2018-09-14T18:48:57.378Z,16.20
2018-09-14T18:50:00.055Z,16.21
2018-09-14T18:50:57.348Z,16.23
2018-09-14T18:51:57.383Z,16.15
2018-09-14T18:53:00.101Z,16.20
2018-09-14T18:53:57.350Z,16.24
2018-09-14T18:54:57.285Z,16.13
2018-09-14T18:55:57.368Z,16.20
2018-09-14T18:56:57.381Z,16.10
2018-09-14T19:01:34.606Z,16.01
2018-09-14T19:03:08.369Z,15.95
2018-09-14T19:04:06.449Z,16.09
2018-09-14T19:06:12.319Z,16.01
2018-09-14T19:07:11.595Z,16.01
2018-09-14T19:09:23.047Z,15.95
2018-09-14T19:10:20.743Z,15.92